createdAt,value
2018-02-14T00:00:10.300Z,97647.08
2018-02-14T00:00:41.917Z,97648.34
2018-02-14T00:01:13.593Z,97646.64
2018-02-14T00:01:45.221Z,97644.83
2018-02-14T00:02:16.866Z,97645.25
2018-02-14T00:02:48.489Z,97645.30
2018-02-14T00:03:20.133Z,97648.17
2018-02-14T00:03:51.773Z,97645.50
2018-02-14T00:04:23.396Z,97645.48
2018-02-14T00:04:55.024Z,97648.41
2018-02-14T00:05:26.650Z,97641.59
2018-02-14T00:05:58.278Z,97638.91
2018-02-14T00:06:29.961Z,97642.30
2018-02-14T00:07:01.589Z,97635.92
2018-02-14T00:07:33.217Z,97644.30
2018-02-14T00:08:04.841Z,97640.47
2018-02-14T00:08:36.470Z,97642.54
2018-02-14T00:09:08.098Z,97643.78
2018-02-14T00:09:39.721Z,97633.59
2018-02-14T00:10:11.386Z,97640.03
2018-02-14T00:10:43.017Z,97638.34
2018-02-14T00:11:14.645Z,97639.13
2018-02-14T00:11:46.317Z,97641.25
2018-02-14T00:12:17.950Z,97636.65
2018-02-14T00:12:49.573Z,97635.78
2018-02-14T00:13:21.217Z,97640.82
2018-02-14T00:13:52.846Z,97633.60
2018-02-14T00:14:24.478Z,97639.14
2018-02-14T00:14:56.100Z,97638.76
2018-02-14T00:15:27.734Z,97639.14
2018-02-14T00:15:59.361Z,97636.59
2018-02-14T00:16:30.989Z,97639.99
2018-02-14T00:17:02.621Z,97639.55
2018-02-14T00:17:34.250Z,97644.71
2018-02-14T00:18:05.877Z,97641.73
2018-02-14T00:18:37.501Z,97640.55
2018-02-14T00:19:09.130Z,97634.59
2018-02-14T00:19:40.762Z,97636.34
2018-02-14T00:20:12.402Z,97640.13
2018-02-14T00:20:44.037Z,97639.77
2018-02-14T00:21:15.661Z,97643.23
2018-02-14T00:21:47.285Z,97648.77
2018-02-14T00:22:18.966Z,97648.39
2018-02-14T00:22:50.600Z,97644.51
2018-02-14T00:23:22.229Z,97650.09
2018-02-14T00:23:53.852Z,97645.91
2018-02-14T00:24:25.477Z,97649.75
2018-02-14T00:24:57.107Z,97640.02
2018-02-14T00:25:28.733Z,97642.64
2018-02-14T00:26:00.361Z,97652.45
2018-02-14T00:26:31.994Z,97641.05
2018-02-14T00:27:03.629Z,97648.28
2018-02-14T00:27:35.310Z,97646.20
2018-02-14T00:28:06.933Z,97648.78
2018-02-14T00:28:38.562Z,97645.80
2018-02-14T00:29:10.184Z,97643.30
2018-02-14T00:29:41.810Z,97644.64
2018-02-14T00:30:13.482Z,97648.86
2018-02-14T00:30:45.113Z,97642.95
2018-02-14T00:31:16.742Z,97645.08
2018-02-14T00:31:48.369Z,97643.86
2018-02-14T00:32:20.007Z,97650.19
2018-02-14T00:32:51.686Z,97642.55
2018-02-14T00:33:23.310Z,97648.50
2018-02-14T00:33:54.937Z,97653.59
2018-02-14T00:34:26.570Z,97649.77
2018-02-14T00:34:58.202Z,97649.77
2018-02-14T00:35:29.828Z,97651.95
2018-02-14T00:36:01.458Z,97652.38
2018-02-14T00:36:33.085Z,97647.27
2018-02-14T00:37:04.713Z,97645.16
2018-02-14T00:37:36.349Z,97649.03
2018-02-14T00:38:08.037Z,97653.70
2018-02-14T00:38:39.662Z,97653.70
2018-02-14T00:39:11.293Z,97647.78
2018-02-14T00:39:42.918Z,97656.74
2018-02-14T00:40:14.542Z,97648.67
2018-02-14T00:40:46.165Z,97645.72
2018-02-14T00:41:17.797Z,97652.55
2018-02-14T00:41:49.425Z,97654.70
2018-02-14T00:42:21.049Z,97649.22
2018-02-14T00:42:52.681Z,97650.94
2018-02-14T00:43:24.360Z,97650.09
2018-02-14T00:43:55.981Z,97657.75
2018-02-14T00:44:27.605Z,97649.34
2018-02-14T00:44:59.229Z,97646.37
2018-02-14T00:45:30.852Z,97656.10
2018-02-14T00:46:02.478Z,97650.62
2018-02-14T00:46:34.109Z,97651.48
2018-02-14T00:47:05.739Z,97651.92
2018-02-14T00:47:37.364Z,97663.86
2018-02-14T00:48:08.998Z,97652.83
2018-02-14T00:48:40.681Z,97647.38
2018-02-14T00:49:12.305Z,97654.95
2018-02-14T00:49:43.938Z,97657.08
2018-02-14T00:50:15.576Z,97657.09
2018-02-14T00:50:47.205Z,97654.10
2018-02-14T00:51:18.838Z,97658.30
2018-02-14T00:51:50.465Z,97654.94
2018-02-14T00:52:22.089Z,97658.34
2018-02-14T00:52:53.723Z,97656.23
2018-02-14T00:53:25.361Z,97657.55
2018-02-14T00:53:57.043Z,97652.03
2018-02-14T00:54:28.673Z,97660.53
2018-02-14T00:55:00.297Z,97642.02
2018-02-14T00:55:31.921Z,97651.20
2018-02-14T00:56:03.549Z,97649.92
2018-02-14T00:56:35.183Z,97657.15
2018-02-14T00:57:06.810Z,97655.08
2018-02-14T00:57:38.438Z,97653.37
2018-02-14T00:58:10.074Z,97658.05
2018-02-14T00:58:41.699Z,97656.78
2018-02-14T00:59:13.382Z,97651.68
2018-02-14T00:59:45.013Z,97651.27
2018-02-14T01:00:16.641Z,97657.26
2018-02-14T01:00:48.265Z,97655.99
2018-02-14T01:01:19.890Z,97650.48
2018-02-14T01:01:51.519Z,97654.77
2018-02-14T01:02:23.148Z,97653.92
2018-02-14T01:02:54.782Z,97658.18
2018-02-14T01:03:26.404Z,97656.91
2018-02-14T01:03:58.034Z,97657.77
2018-02-14T01:04:29.717Z,97656.06
2018-02-14T01:05:01.343Z,97655.64
2018-02-14T01:05:32.973Z,97654.41
2018-02-14T01:06:04.597Z,97655.64
2018-02-14T01:06:36.221Z,97653.13
2018-02-14T01:07:07.846Z,97652.29
2018-02-14T01:07:39.471Z,97652.30
2018-02-14T01:08:11.102Z,97651.92
2018-02-14T01:08:42.730Z,97650.66
2018-02-14T01:09:14.361Z,97650.65
2018-02-14T01:09:46.054Z,97654.47
2018-02-14T01:10:17.681Z,97654.90
2018-02-14T01:10:49.310Z,97653.63
2018-02-14T01:11:20.933Z,97653.22
2018-02-14T01:11:52.564Z,97647.27
2018-02-14T01:12:24.196Z,97653.63
2018-02-14T01:12:55.823Z,97651.94
2018-02-14T01:13:27.453Z,97656.59
2018-02-14T01:13:59.081Z,97653.58
2018-02-14T01:14:30.716Z,97657.38
2018-02-14T01:15:02.393Z,97657.77
2018-02-14T01:15:34.026Z,97651.80
2018-02-14T01:16:05.653Z,97649.57
2018-02-14T01:16:37.284Z,97648.23
2018-02-14T01:17:08.911Z,97648.17
2018-02-14T01:17:40.545Z,97648.16
2018-02-14T01:18:12.169Z,97650.23
2018-02-14T01:18:48.676Z,97653.54
2018-02-14T01:19:20.301Z,97651.31
2018-02-14T01:19:57.554Z,97647.47
2018-02-14T01:20:35.130Z,97649.60
2018-02-14T01:21:06.758Z,97649.16
2018-02-14T01:21:38.400Z,97653.73
2018-02-14T01:22:10.024Z,97652.02
2018-02-14T01:22:41.655Z,97653.28
2018-02-14T01:23:13.285Z,97654.94
2018-02-14T01:23:44.909Z,97656.98
2018-02-14T01:24:16.537Z,97659.95
2018-02-14T01:24:48.161Z,97658.63
2018-02-14T01:25:19.785Z,97651.83
2018-02-14T01:25:51.466Z,97653.11
2018-02-14T01:26:23.098Z,97653.09
2018-02-14T01:26:54.761Z,97653.93
2018-02-14T01:27:26.389Z,97649.63
2018-02-14T01:27:58.018Z,97656.79
2018-02-14T01:28:29.645Z,97652.95
2018-02-14T01:29:01.275Z,97649.55
2018-02-14T01:29:32.897Z,97661.39
2018-02-14T01:30:04.521Z,97655.39
2018-02-14T01:30:36.149Z,97654.17
2018-02-14T01:31:07.780Z,97654.53
2018-02-14T01:31:39.401Z,97651.61
2018-02-14T01:32:11.038Z,97655.81
2018-02-14T01:32:42.665Z,97659.64
2018-02-14T01:33:14.293Z,97656.67
2018-02-14T01:33:45.922Z,97649.44
2018-02-14T01:34:17.555Z,97654.97
2018-02-14T01:34:49.186Z,97651.14
2018-02-14T01:35:20.809Z,97652.79
2018-02-14T01:35:52.433Z,97658.72
2018-02-14T01:36:24.114Z,97652.78
2018-02-14T01:36:55.749Z,97654.92
2018-02-14T01:37:27.372Z,97648.11
2018-02-14T01:37:58.997Z,97651.88
2018-02-14T01:38:30.626Z,97653.13
2018-02-14T01:39:02.256Z,97649.74
2018-02-14T01:39:33.889Z,97656.53
2018-02-14T01:40:05.514Z,97656.97
2018-02-14T01:40:37.149Z,97658.66
2018-02-14T01:41:08.781Z,97655.27
2018-02-14T01:41:40.473Z,97651.50
2018-02-14T01:42:12.102Z,97656.62
2018-02-14T01:42:43.726Z,97654.92
2018-02-14T01:43:15.356Z,97659.20
2018-02-14T01:43:46.982Z,97658.33
2018-02-14T01:44:18.610Z,97656.61
2018-02-14T01:44:50.241Z,97657.03
2018-02-14T01:45:21.865Z,97660.44
2018-02-14T01:45:53.494Z,97657.47
2018-02-14T01:46:25.118Z,97663.42
2018-02-14T01:46:56.794Z,97658.35
2018-02-14T01:47:28.426Z,97656.20
2018-02-14T01:48:00.058Z,97660.91
2018-02-14T01:48:31.681Z,97660.48
2018-02-14T01:49:03.311Z,97655.00
2018-02-14T01:49:34.936Z,97657.14
2018-02-14T01:50:06.561Z,97657.12
2018-02-14T01:50:38.189Z,97657.09
2018-02-14T01:51:09.817Z,97654.10
2018-02-14T01:51:41.443Z,97660.95
2018-02-14T01:52:13.122Z,97659.22
2018-02-14T01:52:44.745Z,97658.84
2018-02-14T01:53:16.369Z,97659.34
2018-02-14T01:53:47.997Z,97655.13
2018-02-14T01:54:19.629Z,97656.84
2018-02-14T01:54:51.257Z,97658.06
2018-02-14T01:55:22.881Z,97660.23
2018-02-14T01:55:54.514Z,97659.41
2018-02-14T01:56:26.143Z,97663.66
2018-02-14T01:56:57.769Z,97658.61
2018-02-14T01:57:29.445Z,97659.97
2018-02-14T01:58:01.073Z,97659.60
2018-02-14T01:58:32.701Z,97660.02
2018-02-14T01:59:04.323Z,97660.89
2018-02-14T01:59:35.958Z,97657.91
2018-02-14T02:00:07.587Z,97660.50
2018-02-14T02:00:39.221Z,97654.97
2018-02-14T02:01:10.846Z,97666.03
2018-02-14T02:01:42.473Z,97655.42
2018-02-14T02:02:14.098Z,97662.70
2018-02-14T02:02:45.785Z,97659.31
2018-02-14T02:03:17.418Z,97663.13
2018-02-14T02:03:49.045Z,97662.29
2018-02-14T02:04:20.674Z,97659.79
2018-02-14T02:04:52.297Z,97660.22
2018-02-14T02:05:23.925Z,97661.98
2018-02-14T02:05:55.550Z,97663.69
2018-02-14T02:06:27.283Z,97658.22
2018-02-14T02:06:58.912Z,97661.63
2018-02-14T02:07:30.538Z,97660.84
2018-02-14T02:08:02.220Z,97663.02
2018-02-14T02:08:33.841Z,97663.88
2018-02-14T02:09:05.465Z,97665.16
2018-02-14T02:09:37.097Z,97664.25
2018-02-14T02:10:08.726Z,97663.02
2018-02-14T02:10:40.353Z,97662.66
2018-02-14T02:11:11.973Z,97664.31
2018-02-14T02:11:43.598Z,97666.50
2018-02-14T02:12:15.227Z,97668.66
2018-02-14T02:12:46.856Z,97664.00
2018-02-14T02:13:18.477Z,97665.28
2018-02-14T02:13:50.102Z,97665.28
2018-02-14T02:14:21.729Z,97667.91
2018-02-14T02:14:53.358Z,97668.73
2018-02-14T02:15:24.986Z,97666.56
2018-02-14T02:15:56.617Z,97664.06
2018-02-14T02:16:28.245Z,97668.75
2018-02-14T02:16:59.873Z,97668.78
2018-02-14T02:17:31.509Z,97667.52
2018-02-14T02:18:03.137Z,97668.80
2018-02-14T02:18:34.809Z,97670.09
2018-02-14T02:19:06.438Z,97662.07
2018-02-14T02:19:38.066Z,97670.56
2018-02-14T02:20:09.697Z,97665.03
2018-02-14T02:25:31.221Z,97668.87
2018-02-14T02:26:02.851Z,97668.92
2018-02-14T02:26:34.478Z,97667.23
2018-02-14T02:27:06.105Z,97665.96
2018-02-14T02:27:37.733Z,97672.33
2018-02-14T02:28:09.354Z,97666.00
2018-02-14T02:28:40.985Z,97667.70
2018-02-14T02:29:12.614Z,97666.44
2018-02-14T02:29:44.246Z,97671.53
2018-02-14T02:30:15.883Z,97666.02
2018-02-14T02:30:47.579Z,97667.77
2018-02-14T02:31:19.209Z,97666.08
2018-02-14T02:31:50.834Z,97668.63
2018-02-14T02:32:22.458Z,97670.80
2018-02-14T02:32:54.090Z,97671.23
2018-02-14T02:33:25.722Z,97669.09
2018-02-14T02:33:57.354Z,97673.30
2018-02-14T02:34:28.986Z,97670.38
2018-02-14T02:35:00.631Z,97670.38
2018-02-14T02:35:32.268Z,97670.86
2018-02-14T02:36:03.945Z,97672.14
2018-02-14T02:36:35.587Z,97667.89
2018-02-14T02:37:07.209Z,97670.02
2018-02-14T02:37:38.838Z,97668.80
2018-02-14T02:38:10.470Z,97673.04
2018-02-14T02:38:42.106Z,97673.04
2018-02-14T02:39:13.734Z,97667.58
2018-02-14T02:39:45.376Z,97675.59
2018-02-14T02:40:17.009Z,97676.81
2018-02-14T02:40:48.642Z,97673.41
2018-02-14T02:41:20.317Z,97675.55
2018-02-14T02:41:51.945Z,97673.00
2018-02-14T02:42:23.573Z,97672.94
2018-02-14T02:42:55.198Z,97678.45
2018-02-14T02:43:26.828Z,97670.32
2018-02-14T02:43:58.460Z,97682.59
2018-02-14T02:44:30.087Z,97679.55
2018-02-14T02:45:01.713Z,97676.98
2018-02-14T02:45:33.343Z,97672.27
2018-02-14T02:46:04.971Z,97672.67
2018-02-14T02:46:36.646Z,97670.08
2018-02-14T02:47:08.274Z,97675.59
2018-02-14T02:47:39.903Z,97679.77
2018-02-14T02:48:11.532Z,97678.07
2018-02-14T02:48:43.157Z,97674.20
2018-02-14T02:49:14.782Z,97677.58
2018-02-14T02:49:46.405Z,97678.37
2018-02-14T02:50:18.037Z,97679.60
2018-02-14T02:50:49.665Z,97667.34
2018-02-14T02:51:21.294Z,97681.72
2018-02-14T02:51:52.973Z,97679.94
2018-02-14T02:52:24.605Z,97682.49
2018-02-14T02:52:56.234Z,97676.84
2018-02-14T02:53:27.860Z,97686.56
2018-02-14T02:53:59.494Z,97683.59
2018-02-14T02:54:31.122Z,97681.09
2018-02-14T02:55:02.766Z,97683.23
2018-02-14T02:58:14.342Z,97684.81
2018-02-14T02:58:45.966Z,97685.70
2018-02-14T02:59:17.589Z,97690.34
2018-02-14T02:59:49.213Z,97681.41
2018-02-14T03:00:20.981Z,97682.19
2018-02-14T03:00:52.617Z,97681.70
2018-02-14T03:01:24.249Z,97679.20
2018-02-14T03:01:55.874Z,97681.64
2018-02-14T03:02:27.497Z,97679.57
2018-02-14T03:02:59.174Z,97683.34
2018-02-14T03:03:30.804Z,97682.00
2018-02-14T03:04:02.438Z,97683.70
2018-02-14T03:04:34.075Z,97680.72
2018-02-14T03:05:05.702Z,97684.95
2018-02-14T03:05:37.369Z,97682.77
2018-02-14T03:06:08.997Z,97684.00
2018-02-14T03:06:40.622Z,97684.85
2018-02-14T03:07:12.249Z,97682.34
2018-02-14T03:07:43.877Z,97679.38
2018-02-14T03:08:15.557Z,97688.23
2018-02-14T03:08:47.177Z,97685.67
2018-02-14T03:09:18.802Z,97686.96
2018-02-14T03:09:50.432Z,97684.05
2018-02-14T03:10:22.060Z,97695.52
2018-02-14T03:10:53.698Z,97688.72
2018-02-14T03:11:25.331Z,97691.28
2018-02-14T03:11:56.963Z,97693.34
2018-02-14T03:12:28.593Z,97689.56
2018-02-14T03:13:00.230Z,97689.52
2018-02-14T03:13:31.906Z,97685.25
2018-02-14T03:14:03.558Z,97688.65
2018-02-14T03:14:35.182Z,97696.33
2018-02-14T03:15:06.814Z,97691.69
2018-02-14T03:15:38.440Z,97691.16
2018-02-14T03:16:10.066Z,97696.67
2018-02-14T03:16:41.692Z,97694.19
2018-02-14T03:17:13.318Z,97689.45
2018-02-14T03:17:44.945Z,97696.73
2018-02-14T03:18:16.574Z,97695.02
2018-02-14T03:18:48.250Z,97695.10
2018-02-14T03:19:19.882Z,97695.53
2018-02-14T03:19:51.514Z,97693.83
2018-02-14T03:20:23.142Z,97696.81
2018-02-14T03:20:54.764Z,97691.36
2018-02-14T03:21:26.393Z,97697.34
2018-02-14T03:21:58.017Z,97695.66
2018-02-14T03:22:29.645Z,97700.82
2018-02-14T03:23:01.274Z,97704.72
2018-02-14T03:23:32.902Z,97701.80
2018-02-14T03:24:04.577Z,97701.75
2018-02-14T03:24:36.206Z,97700.89
2018-02-14T03:25:07.840Z,97698.41
2018-02-14T03:25:39.464Z,97702.70
2018-02-14T03:26:11.089Z,97702.29
2018-02-14T03:26:42.722Z,97704.78
2018-02-14T03:27:14.348Z,97703.56
2018-02-14T03:27:45.973Z,97705.27
2018-02-14T03:28:17.601Z,97701.98
2018-02-14T03:28:49.230Z,97704.91
2018-02-14T03:29:20.910Z,97706.66
2018-02-14T03:29:52.537Z,97704.17
2018-02-14T03:30:24.167Z,97701.63
2018-02-14T03:30:55.802Z,97704.66
2018-02-14T03:31:27.434Z,97706.42
2018-02-14T03:31:59.065Z,97705.64
2018-02-14T03:32:30.698Z,97705.70
2018-02-14T03:33:02.326Z,97704.86
2018-02-14T03:33:33.963Z,97702.78
2018-02-14T03:34:05.590Z,97710.00
2018-02-14T03:35:15.159Z,97710.48
2018-02-14T03:35:46.799Z,97706.72
2018-02-14T03:36:18.429Z,97702.47
2018-02-14T03:36:50.053Z,97702.91
2018-02-14T03:37:21.676Z,97709.70
2018-02-14T03:37:53.314Z,97703.34
2018-02-14T03:38:24.946Z,97707.14
2018-02-14T03:38:56.573Z,97705.03
2018-02-14T03:39:28.198Z,97706.34
2018-02-14T03:39:59.825Z,97703.81
2018-02-14T03:40:31.458Z,97706.73
2018-02-14T03:41:03.085Z,97702.78
2018-02-14T03:41:34.737Z,97706.91
2018-02-14T03:42:06.365Z,97703.45
2018-02-14T03:42:37.994Z,97707.34
2018-02-14T03:43:09.622Z,97706.55
2018-02-14T03:43:41.245Z,97711.33
2018-02-14T03:44:12.869Z,97704.19
2018-02-14T03:44:44.553Z,97707.69
2018-02-14T03:45:16.187Z,97706.47
2018-02-14T03:45:47.832Z,97709.09
2018-02-14T03:46:19.477Z,97707.02
2018-02-14T03:46:51.114Z,97704.09
2018-02-14T03:47:22.774Z,97706.66
2018-02-14T03:47:54.406Z,97709.89
2018-02-14T03:48:26.033Z,97713.64
2018-02-14T03:48:57.666Z,97703.81
2018-02-14T03:49:29.294Z,97710.55
2018-02-14T03:50:00.974Z,97710.92
2018-02-14T03:50:32.598Z,97708.72
2018-02-14T03:51:04.239Z,97710.78
2018-02-14T03:51:35.874Z,97714.97
2018-02-14T03:52:07.501Z,97709.34
2018-02-14T03:52:39.137Z,97709.70
2018-02-14T03:53:10.765Z,97712.67
2018-02-14T03:53:42.421Z,97713.52
2018-02-14T03:54:14.053Z,97714.84
2018-02-14T03:54:45.681Z,97708.98
2018-02-14T03:55:17.365Z,97713.41
2018-02-14T03:55:48.994Z,97715.23
2018-02-14T03:56:20.631Z,97713.64
2018-02-14T03:56:52.261Z,97715.89
2018-02-14T03:57:23.914Z,97724.06
2018-02-14T03:57:55.566Z,97719.04
2018-02-14T03:58:27.192Z,97717.76
2018-02-14T03:58:58.825Z,97718.61
2018-02-14T03:59:30.453Z,97719.94
2018-02-14T04:00:02.097Z,97719.19
2018-02-14T04:00:36.437Z,97719.25
2018-02-14T04:01:12.038Z,97727.38
2018-02-14T04:01:43.663Z,97715.12
2018-02-14T04:02:15.293Z,97721.08
2018-02-14T04:02:46.917Z,97719.01
2018-02-14T04:03:18.545Z,97723.69
2018-02-14T04:03:50.172Z,97724.59
2018-02-14T04:04:21.801Z,97720.35
2018-02-14T04:04:53.437Z,97720.41
2018-02-14T04:05:25.073Z,97719.14
2018-02-14T04:05:56.753Z,97720.45
2018-02-14T04:06:28.381Z,97721.31
2018-02-14T04:07:00.012Z,97726.83
2018-02-14T04:07:31.641Z,97720.92
2018-02-14T04:08:03.274Z,97724.75
2018-02-14T04:08:34.898Z,97730.22
2018-02-14T04:09:06.530Z,97729.37
2018-02-14T04:09:38.201Z,97727.67
2018-02-14T04:10:09.825Z,97731.45
2018-02-14T04:10:41.465Z,97729.33
2018-02-14T04:11:13.146Z,97733.55
2018-02-14T04:11:44.774Z,97736.91
2018-02-14T04:12:16.401Z,97733.89
2018-02-14T04:12:48.032Z,97732.19
2018-02-14T04:13:19.663Z,97731.31
2018-02-14T04:13:51.287Z,97731.70
2018-02-14T04:14:22.916Z,97731.69
2018-02-14T04:14:54.541Z,97736.34
2018-02-14T04:15:26.169Z,97734.21
2018-02-14T04:15:57.799Z,97735.40
2018-02-14T04:16:29.482Z,97734.96
2018-02-14T04:17:01.110Z,97737.03
2018-02-14T04:17:32.742Z,97739.56
2018-02-14T04:18:04.374Z,97735.70
2018-02-14T04:18:36.030Z,97732.25
2018-02-14T04:19:07.686Z,97736.01
2018-02-14T04:19:39.317Z,97740.63
2018-02-14T04:20:10.941Z,97739.34
2018-02-14T04:20:42.566Z,97741.42
2018-02-14T04:21:14.193Z,97742.59
2018-02-14T04:21:45.818Z,97739.13
2018-02-14T04:22:17.449Z,97737.37
2018-02-14T04:22:49.079Z,97734.76
2018-02-14T04:23:20.722Z,97738.09
2018-02-14T04:23:52.369Z,97739.27
2018-02-14T04:24:24.014Z,97742.59
2018-02-14T04:24:55.658Z,97741.67
2018-02-14T04:25:27.289Z,97736.09
2018-02-14T04:25:58.961Z,97741.92
2018-02-14T04:26:30.594Z,97743.93
2018-02-14T04:27:02.275Z,97743.03
2018-02-14T04:27:33.901Z,97745.09
2018-02-14T04:28:06.325Z,97742.48
2018-02-14T04:28:37.968Z,97749.62
2018-02-14T04:29:09.597Z,97746.95
2018-02-14T04:29:41.225Z,97743.98
2018-02-14T04:30:27.734Z,97740.45
2018-02-14T04:30:59.386Z,97742.97
2018-02-14T04:31:31.013Z,97745.05
2018-02-14T04:32:02.695Z,97747.09
2018-02-14T04:32:34.317Z,97745.81
2018-02-14T04:33:05.941Z,97748.19
2018-02-14T04:33:37.571Z,97749.53
2018-02-14T04:34:09.217Z,97739.73
2018-02-14T04:34:40.849Z,97748.61
2018-02-14T04:35:12.482Z,97744.86
2018-02-14T04:35:44.112Z,97750.51
2018-02-14T04:36:15.738Z,97746.69
2018-02-14T04:36:47.370Z,97742.92
2018-02-14T04:37:19.054Z,97751.03
2018-02-14T04:37:50.685Z,97748.97
2018-02-14T04:38:22.312Z,97743.56
2018-02-14T04:38:53.941Z,97753.34
2018-02-14T04:39:25.565Z,97750.36
2018-02-14T04:39:57.200Z,97751.33
2018-02-14T04:40:28.835Z,97752.23
2018-02-14T04:41:00.469Z,97747.20
2018-02-14T04:41:32.101Z,97753.53
2018-02-14T04:42:03.729Z,97751.82
2018-02-14T04:42:35.406Z,97754.36
2018-02-14T04:43:07.036Z,97753.52
2018-02-14T04:43:38.666Z,97750.98
2018-02-14T04:44:10.297Z,97751.87
2018-02-14T04:44:41.931Z,97752.78
2018-02-14T04:45:13.562Z,97752.36
2018-02-14T04:45:45.197Z,97752.02
2018-02-14T04:46:16.825Z,97759.22
2018-02-14T04:46:48.454Z,97755.89
2018-02-14T04:47:20.085Z,97758.45
2018-02-14T04:47:51.772Z,97758.93
2018-02-14T04:48:23.402Z,97755.21
2018-02-14T04:48:55.030Z,97761.53
2018-02-14T04:49:26.661Z,97757.29
2018-02-14T04:49:58.295Z,97758.14
2018-02-14T04:50:29.922Z,97756.92
2018-02-14T04:51:01.557Z,97755.65
2018-02-14T04:51:33.189Z,97753.56
2018-02-14T04:52:04.825Z,97759.53
2018-02-14T04:52:36.458Z,97757.02
2018-02-14T04:53:08.133Z,97760.85
2018-02-14T04:53:39.761Z,97757.52
2018-02-14T04:54:11.397Z,97755.83
2018-02-14T04:54:43.025Z,97757.15
2018-02-14T04:55:14.656Z,97758.80
2018-02-14T04:55:46.282Z,97769.90
2018-02-14T04:56:17.919Z,97763.16
2018-02-14T04:56:49.550Z,97764.91
2018-02-14T04:57:21.179Z,97760.67
2018-02-14T04:57:52.804Z,97764.55
2018-02-14T04:58:24.484Z,97765.45
2018-02-14T04:58:56.110Z,97760.83
2018-02-14T04:59:27.738Z,97765.52
2018-02-14T04:59:59.361Z,97762.55
2018-02-14T05:00:30.990Z,97761.75
2018-02-14T05:01:02.617Z,97764.34
2018-02-14T05:01:34.242Z,97765.67
2018-02-14T05:02:05.873Z,97766.09
2018-02-14T05:02:37.514Z,97765.30
2018-02-14T05:03:09.169Z,97772.95
2018-02-14T05:03:40.793Z,97770.03
2018-02-14T05:04:12.427Z,97770.47
2018-02-14T05:04:44.064Z,97771.31
2018-02-14T05:05:15.689Z,97764.14
2018-02-14T05:05:47.317Z,97772.64
2018-02-14T05:06:18.941Z,97773.50
2018-02-14T05:06:50.575Z,97769.72
2018-02-14T05:07:22.196Z,97768.02
2018-02-14T05:07:53.822Z,97769.30
2018-02-14T05:08:25.510Z,97771.48
2018-02-14T05:08:57.140Z,97771.10
2018-02-14T05:09:28.766Z,97769.83
2018-02-14T05:10:00.394Z,97766.86
2018-02-14T05:10:32.022Z,97767.33
2018-02-14T05:11:03.655Z,97767.78
2018-02-14T05:11:35.282Z,97764.81
2018-02-14T05:12:06.906Z,97769.53
2018-02-14T05:12:38.545Z,97767.03
2018-02-14T05:13:10.173Z,97769.63
2018-02-14T05:13:41.849Z,97765.39
2018-02-14T05:14:13.477Z,97770.91
2018-02-14T05:14:45.115Z,97770.95
2018-02-14T05:15:16.754Z,97769.73
2018-02-14T05:15:48.387Z,97765.92
2018-02-14T05:16:20.013Z,97771.02
2018-02-14T05:16:51.643Z,97769.36
2018-02-14T05:17:23.277Z,97768.09
2018-02-14T05:17:54.906Z,97767.24
2018-02-14T05:18:26.542Z,97773.62
2018-02-14T05:18:58.222Z,97771.53
2018-02-14T05:19:29.849Z,97773.25
2018-02-14T05:20:01.478Z,97771.12
2018-02-14T05:20:33.102Z,97777.11
2018-02-14T05:21:04.738Z,97779.23
2018-02-14T05:21:36.365Z,97774.18
2018-02-14T05:22:07.993Z,97776.31
2018-02-14T05:22:39.629Z,97779.28
2018-02-14T05:23:11.257Z,97781.45
2018-02-14T05:23:42.883Z,97785.27
2018-02-14T05:24:14.557Z,97780.23
2018-02-14T05:24:46.187Z,97779.38
2018-02-14T05:25:17.817Z,97780.23
2018-02-14T05:25:49.449Z,97783.67
2018-02-14T05:26:21.086Z,97781.97
2018-02-14T05:26:52.714Z,97784.91
2018-02-14T05:27:24.354Z,97781.97
2018-02-14T05:27:55.982Z,97784.10
2018-02-14T05:28:27.614Z,97782.45
2018-02-14T05:28:59.246Z,97784.58
2018-02-14T05:29:30.925Z,97779.95
2018-02-14T05:30:02.559Z,97789.29
2018-02-14T05:30:34.185Z,97788.48
2018-02-14T05:31:05.814Z,97785.09
2018-02-14T05:31:37.446Z,97788.91
2018-02-14T05:32:09.077Z,97782.55
2018-02-14T05:32:40.700Z,97783.86
2018-02-14T05:33:12.334Z,97783.86
2018-02-14T05:33:43.967Z,97785.98
2018-02-14T05:34:15.589Z,97787.26
2018-02-14T05:34:47.265Z,97785.98
2018-02-14T05:35:18.885Z,97786.88
2018-02-14T05:35:50.512Z,97789.42
2018-02-14T05:36:22.149Z,97787.31
2018-02-14T05:36:53.778Z,97783.06
2018-02-14T05:37:25.409Z,97788.58
2018-02-14T05:37:57.034Z,97787.73
2018-02-14T05:38:28.670Z,97789.42
2018-02-14T05:39:00.298Z,97786.45
2018-02-14T05:39:31.925Z,97787.73
2018-02-14T05:40:03.597Z,97789.84
2018-02-14T05:40:35.225Z,97794.90
2018-02-14T05:41:06.849Z,97790.23
2018-02-14T05:41:38.480Z,97788.09
2018-02-14T05:42:10.114Z,97792.31
2018-02-14T05:42:41.745Z,97787.21
2018-02-14T05:43:13.378Z,97797.34
2018-02-14T05:43:45.007Z,97794.33
2018-02-14T05:44:16.641Z,97790.08
2018-02-14T05:44:48.274Z,97795.55
2018-02-14T05:45:19.901Z,97793.38
2018-02-14T05:45:51.525Z,97793.34
2018-02-14T05:46:23.160Z,97797.58
2018-02-14T05:46:54.790Z,97796.30
2018-02-14T05:47:26.423Z,97794.56
2018-02-14T05:47:58.058Z,97797.06
2018-02-14T05:48:29.693Z,97800.06
2018-02-14T05:49:01.329Z,97797.48
2018-02-14T05:49:32.957Z,97800.40
2018-02-14T05:50:04.585Z,97802.09
2018-02-14T05:50:36.257Z,97799.93
2018-02-14T05:51:07.881Z,97804.97
2018-02-14T05:51:39.510Z,97801.52
2018-02-14T05:52:11.135Z,97804.88
2018-02-14T05:52:42.765Z,97799.34
2018-02-14T05:53:14.402Z,97806.45
2018-02-14T05:53:46.030Z,97799.19
2018-02-14T05:54:17.652Z,97801.73
2018-02-14T05:54:49.287Z,97805.49
2018-02-14T05:55:20.918Z,97799.12
2018-02-14T05:55:52.598Z,97800.77
2018-02-14T05:56:24.225Z,97799.88
2018-02-14T05:56:55.854Z,97807.89
2018-02-14T05:57:27.490Z,97804.91
2018-02-14T05:57:59.126Z,97807.41
2018-02-14T05:58:30.788Z,97804.80
2018-02-14T05:59:02.426Z,97806.87
2018-02-14T05:59:34.053Z,97805.96
2018-02-14T06:00:05.687Z,97810.95
2018-02-14T06:00:37.318Z,97809.56
2018-02-14T06:01:08.996Z,97809.52
2018-02-14T06:01:40.630Z,97809.36
2018-02-14T06:02:12.258Z,97809.30
2018-02-14T06:02:43.891Z,97810.09
2018-02-14T06:03:15.517Z,97810.83
2018-02-14T06:03:47.149Z,97809.44
2018-02-14T06:04:18.777Z,97814.17
2018-02-14T06:04:50.413Z,97812.46
2018-02-14T06:05:22.047Z,97814.11
2018-02-14T06:05:53.682Z,97815.38
2018-02-14T06:06:25.378Z,97804.34
2018-02-14T06:06:57.026Z,97817.39
2018-02-14T06:07:28.659Z,97817.88
2018-02-14T06:08:00.281Z,97818.36
2018-02-14T06:08:31.913Z,97818.30
2018-02-14T06:09:03.541Z,97818.30
2018-02-14T06:09:35.165Z,97813.62
2018-02-14T06:10:06.794Z,97816.61
2018-02-14T06:10:38.425Z,97819.55
2018-02-14T06:11:10.058Z,97819.92
2018-02-14T06:11:41.730Z,97817.45
2018-02-14T06:12:13.366Z,97821.31
2018-02-14T06:12:44.995Z,97818.36
2018-02-14T06:13:16.621Z,97817.55
2018-02-14T06:13:48.280Z,97822.19
2018-02-14T06:14:19.909Z,97822.17
2018-02-14T06:14:51.538Z,97824.25
2018-02-14T06:15:23.162Z,97822.59
2018-02-14T06:15:54.789Z,97825.25
2018-02-14T06:16:26.422Z,97826.44
2018-02-14T06:16:58.102Z,97818.78
2018-02-14T06:17:29.730Z,97823.45
2018-02-14T06:18:01.358Z,97824.73
2018-02-14T06:18:32.981Z,97823.19
2018-02-14T06:19:04.609Z,97822.83
2018-02-14T06:19:36.242Z,97824.16
2018-02-14T06:20:07.875Z,97821.61